sensor_id;sensor_type;location;lat;lon;timestamp;pressure;altitude;pressure_sealevel;temperature
79756;BMP280;69239;50.678;12.280;2024-02-26T00:00:03;96190.16;;;1.37
79756;BMP280;69239;50.678;12.280;2024-02-26T00:02:30;96194.31;;;1.38
79756;BMP280;69239;50.678;12.280;2024-02-26T00:04:56;96189.00;;;1.30
79756;BMP280;69239;50.678;12.280;2024-02-26T00:07:21;96197.53;;;1.30
79756;BMP280;69239;50.678;12.280;2024-02-26T00:09:46;96194.38;;;1.33
79756;BMP280;69239;50.678;12.280;2024-02-26T00:12:12;96187.72;;;1.27
79756;BMP280;69239;50.678;12.280;2024-02-26T00:14:37;96180.97;;;1.26
79756;BMP280;69239;50.678;12.280;2024-02-26T00:17:02;96192.13;;;1.27
79756;BMP280;69239;50.678;12.280;2024-02-26T00:19:27;96185.66;;;1.24
79756;BMP280;69239;50.678;12.280;2024-02-26T00:21:53;96173.03;;;1.18
79756;BMP280;69239;50.678;12.280;2024-02-26T00:24:21;96170.25;;;1.14
79756;BMP280;69239;50.678;12.280;2024-02-26T00:26:46;96169.72;;;1.12
79756;BMP280;69239;50.678;12.280;2024-02-26T00:29:12;96158.97;;;1.00
79756;BMP280;69239;50.678;12.280;2024-02-26T00:31:37;96171.06;;;1.09
79756;BMP280;69239;50.678;12.280;2024-02-26T00:34:04;96161.00;;;1.03
79756;BMP280;69239;50.678;12.280;2024-02-26T00:36:29;96163.63;;;0.98
79756;BMP280;69239;50.678;12.280;2024-02-26T00:38:54;96162.63;;;0.99
79756;BMP280;69239;50.678;12.280;2024-02-26T00:41:21;96141.47;;;0.87
79756;BMP280;69239;50.678;12.280;2024-02-26T00:43:46;96159.56;;;0.92
79756;BMP280;69239;50.678;12.280;2024-02-26T00:46:12;96152.28;;;0.94
79756;BMP280;69239;50.678;12.280;2024-02-26T00:48:37;96140.47;;;0.82
79756;BMP280;69239;50.678;12.280;2024-02-26T00:51:03;96148.69;;;0.90
79756;BMP280;69239;50.678;12.280;2024-02-26T00:53:32;96146.66;;;0.87
79756;BMP280;69239;50.678;12.280;2024-02-26T00:55:58;96133.75;;;0.81
79756;BMP280;69239;50.678;12.280;2024-02-26T00:58:27;96131.66;;;0.83
79756;BMP280;69239;50.678;12.280;2024-02-26T01:00:52;96132.97;;;0.81
79756;BMP280;69239;50.678;12.280;2024-02-26T01:03:18;96122.38;;;0.77
79756;BMP280;69239;50.678;12.280;2024-02-26T01:05:43;96126.31;;;0.75
79756;BMP280;69239;50.678;12.280;2024-02-26T01:08:08;96116.75;;;0.70
79756;BMP280;69239;50.678;12.280;2024-02-26T01:10:34;96118.03;;;0.73
79756;BMP280;69239;50.678;12.280;2024-02-26T01:12:59;96121.94;;;0.70
79756;BMP280;69239;50.678;12.280;2024-02-26T01:15:25;96120.19;;;0.66
79756;BMP280;69239;50.678;12.280;2024-02-26T01:17:50;96118.84;;;0.68
79756;BMP280;69239;50.678;12.280;2024-02-26T01:20:16;96110.34;;;0.63
79756;BMP280;69239;50.678;12.280;2024-02-26T01:22:42;96110.34;;;0.63
79756;BMP280;69239;50.678;12.280;2024-02-26T01:25:07;96102.88;;;0.61
79756;BMP280;69239;50.678;12.280;2024-02-26T01:27:33;96099.78;;;0.59
79756;BMP280;69239;50.678;12.280;2024-02-26T01:29:58;96106.22;;;0.62
79756;BMP280;69239;50.678;12.280;2024-02-26T01:32:23;96112.94;;;0.63
79756;BMP280;69239;50.678;12.280;2024-02-26T01:34:48;96103.63;;;0.62
79756;BMP280;69239;50.678;12.280;2024-02-26T01:37:14;96105.50;;;0.56
79756;BMP280;69239;50.678;12.280;2024-02-26T01:39:39;96098.25;;;0.58
79756;BMP280;69239;50.678;12.280;2024-02-26T01:42:06;96097.47;;;0.58
79756;BMP280;69239;50.678;12.280;2024-02-26T01:44:32;96094.66;;;0.54
79756;BMP280;69239;50.678;12.280;2024-02-26T01:46:57;96094.06;;;0.62
79756;BMP280;69239;50.678;12.280;2024-02-26T01:49:22;96104.41;;;0.62
79756;BMP280;69239;50.678;12.280;2024-02-26T01:51:47;96101.13;;;0.57
79756;BMP280;69239;50.678;12.280;2024-02-26T01:54:13;96092.81;;;0.54
79756;BMP280;69239;50.678;12.280;2024-02-26T01:56:39;96092.81;;;0.54
79756;BMP280;69239;50.678;12.280;2024-02-26T01:59:05;96106.78;;;0.59
79756;BMP280;69239;50.678;12.280;2024-02-26T02:01:31;96098.28;;;0.53
79756;BMP280;69239;50.678;12.280;2024-02-26T02:03:58;96088.22;;;0.51
79756;BMP280;69239;50.678;12.280;2024-02-26T02:06:24;96085.13;;;0.49
79756;BMP280;69239;50.678;12.280;2024-02-26T02:08:49;96100.38;;;0.51
79756;BMP280;69239;50.678;12.280;2024-02-26T02:11:14;96097.84;;;0.46
79756;BMP280;69239;50.678;12.280;2024-02-26T02:13:40;96097.06;;;0.45
79756;BMP280;69239;50.678;12.280;2024-02-26T02:16:06;96093.44;;;0.46
79756;BMP280;69239;50.678;12.280;2024-02-26T02:18:31;96101.94;;;0.47
79756;BMP280;69239;50.678;12.280;2024-02-26T02:20:56;96099.41;;;0.42
79756;BMP280;69239;50.678;12.280;2024-02-26T02:23:25;96103.28;;;0.44
79756;BMP280;69239;50.678;12.280;2024-02-26T02:25:51;96100.97;;;0.43
79756;BMP280;69239;50.678;12.280;2024-02-26T02:28:16;96098.69;;;0.36
79756;BMP280;69239;50.678;12.280;2024-02-26T02:30:43;96106.69;;;0.40
79756;BMP280;69239;50.678;12.280;2024-02-26T02:33:09;96115.50;;;0.39
79756;BMP280;69239;50.678;12.280;2024-02-26T02:35:38;96100.84;;;0.29
79756;BMP280;69239;50.678;12.280;2024-02-26T02:38:03;96114.47;;;0.35
79756;BMP280;69239;50.678;12.280;2024-02-26T02:40:29;96103.16;;;0.31
79756;BMP280;69239;50.678;12.280;2024-02-26T02:42:55;96116.56;;;0.33
79756;BMP280;69239;50.678;12.280;2024-02-26T02:45:20;96113.69;;;0.34
79756;BMP280;69239;50.678;12.280;2024-02-26T02:47:46;96108.34;;;0.31
79756;BMP280;69239;50.678;12.280;2024-02-26T02:50:11;96109.88;;;0.32
79756;BMP280;69239;50.678;12.280;2024-02-26T02:52:36;96098.03;;;0.25
79756;BMP280;69239;50.678;12.280;2024-02-26T02:55:03;96109.91;;;0.26
79756;BMP280;69239;50.678;12.280;2024-02-26T02:57:29;96101.66;;;0.24
79756;BMP280;69239;50.678;12.280;2024-02-26T02:59:55;96103.47;;;0.24
79756;BMP280;69239;50.678;12.280;2024-02-26T03:02:20;96103.22;;;0.20
79756;BMP280;69239;50.678;12.280;2024-02-26T03:04:45;96091.88;;;0.16
79756;BMP280;69239;50.678;12.280;2024-02-26T03:07:11;96109.16;;;0.21
79756;BMP280;69239;50.678;12.280;2024-02-26T03:09:36;96112.56;;;0.21
79756;BMP280;69239;50.678;12.280;2024-02-26T03:12:01;96114.13;;;0.17
79756;BMP280;69239;50.678;12.280;2024-02-26T03:14:26;96107.63;;;0.20
79756;BMP280;69239;50.678;12.280;2024-02-26T03:16:55;96109.72;;;0.18
79756;BMP280;69239;50.678;12.280;2024-02-26T03:19:22;96118.53;;;0.17
79756;BMP280;69239;50.678;12.280;2024-02-26T03:21:48;96100.22;;;0.08
79756;BMP280;69239;50.678;12.280;2024-02-26T03:24:13;96123.44;;;0.13
79756;BMP280;69239;50.678;12.280;2024-02-26T03:26:39;96096.63;;;0.04
79756;BMP280;69239;50.678;12.280;2024-02-26T03:29:05;96097.66;;;0.03
79756;BMP280;69239;50.678;12.280;2024-02-26T03:31:30;96110.03;;;0.11
79756;BMP280;69239;50.678;12.280;2024-02-26T03:33:56;96107.72;;;0.10
79756;BMP280;69239;50.678;12.280;2024-02-26T03:36:21;96093.28;;;0.04
79756;BMP280;69239;50.678;12.280;2024-02-26T03:38:50;96113.66;;;0.10
79756;BMP280;69239;50.678;12.280;2024-02-26T03:41:15;96102.28;;;0.06
79756;BMP280;69239;50.678;12.280;2024-02-26T03:43:41;96109.03;;;0.07
79756;BMP280;69239;50.678;12.280;2024-02-26T03:46:09;96116.28;;;0.05
79756;BMP280;69239;50.678;12.280;2024-02-26T03:48:36;96113.19;;;0.03
79756;BMP280;69239;50.678;12.280;2024-02-26T03:51:02;96113.19;;;0.03
79756;BMP280;69239;50.678;12.280;2024-02-26T03:53:27;96119.41;;;0.02
79756;BMP280;69239;50.678;12.280;2024-02-26T03:55:53;96113.50;;;-0.04
79756;BMP280;69239;50.678;12.280;2024-02-26T03:58:18;96119.41;;;0.02
79756;BMP280;69239;50.678;12.280;2024-02-26T04:00:43;96124.31;;;0.04
79756;BMP280;69239;50.678;12.280;2024-02-26T04:03:09;96128.44;;;0.05
79756;BMP280;69239;50.678;12.280;2024-02-26T04:05:35;96125.09;;;-0.01
79756;BMP280;69239;50.678;12.280;2024-02-26T04:08:00;96127.16;;;0.02
79756;BMP280;69239;50.678;12.280;2024-02-26T04:10:25;96124.59;;;0.02
79756;BMP280;69239;50.678;12.280;2024-02-26T04:12:50;96120.97;;;-0.02
79756;BMP280;69239;50.678;12.280;2024-02-26T04:15:16;96123.56;;;-0.02
79756;BMP280;69239;50.678;12.280;2024-02-26T04:17:41;96129.00;;;-0.04
79756;BMP280;69239;50.678;12.280;2024-02-26T04:20:07;96138.31;;;-0.03
79756;BMP280;69239;50.678;12.280;2024-02-26T04:22:33;96138.59;;;-0.04
79756;BMP280;69239;50.678;12.280;2024-02-26T04:24:58;96141.44;;;-0.06
79756;BMP280;69239;50.678;12.280;2024-02-26T04:27:23;96132.94;;;-0.11
79756;BMP280;69239;50.678;12.280;2024-02-26T04:29:49;96138.59;;;-0.09
79756;BMP280;69239;50.678;12.280;2024-02-26T04:32:14;96139.16;;;-0.12
79756;BMP280;69239;50.678;12.280;2024-02-26T04:34:40;96141.22;;;-0.14
79756;BMP280;69239;50.678;12.280;2024-02-26T04:37:05;96138.63;;;-0.14
79756;BMP280;69239;50.678;12.280;2024-02-26T04:39:30;96132.97;;;-0.16
79756;BMP280;69239;50.678;12.280;2024-02-26T04:41:55;96139.16;;;-0.17
79756;BMP280;69239;50.678;12.280;2024-02-26T04:44:21;96132.47;;;-0.18
79756;BMP280;69239;50.678;12.280;2024-02-26T04:46:46;96140.72;;;-0.16
79756;BMP280;69239;50.678;12.280;2024-02-26T04:49:11;96140.72;;;-0.16
79756;BMP280;69239;50.678;12.280;2024-02-26T04:51:37;96138.63;;;-0.14
79756;BMP280;69239;50.678;12.280;2024-02-26T04:54:08;96140.72;;;-0.16
79756;BMP280;69239;50.678;12.280;2024-02-26T04:56:33;96135.03;;;-0.13
79756;BMP280;69239;50.678;12.280;2024-02-26T04:58:58;96137.63;;;-0.18
79756;BMP280;69239;50.678;12.280;2024-02-26T05:01:23;96136.31;;;-0.16
79756;BMP280;69239;50.678;12.280;2024-02-26T05:03:49;96132.47;;;-0.18
79756;BMP280;69239;50.678;12.280;2024-02-26T05:06:14;96134.53;;;-0.20
79756;BMP280;69239;50.678;12.280;2024-02-26T05:08:40;96122.63;;;-0.21
79756;BMP280;69239;50.678;12.280;2024-02-26T05:11:05;96126.31;;;-0.28
79756;BMP280;69239;50.678;12.280;2024-02-26T05:13:33;96127.03;;;-0.22
79756;BMP280;69239;50.678;12.280;2024-02-26T05:15:58;96125.50;;;-0.23
79756;BMP280;69239;50.678;12.280;2024-02-26T05:18:23;96130.38;;;-0.21
79756;BMP280;69239;50.678;12.280;2024-02-26T05:20:49;96130.66;;;-0.23
79756;BMP280;69239;50.678;12.280;2024-02-26T05:23:14;96119.56;;;-0.23
79756;BMP280;69239;50.678;12.280;2024-02-26T05:25:39;96122.13;;;-0.23
79756;BMP280;69239;50.678;12.280;2024-02-26T05:28:05;96122.13;;;-0.23
79756;BMP280;69239;50.678;12.280;2024-02-26T05:30:30;96116.97;;;-0.29
79756;BMP280;69239;50.678;12.280;2024-02-26T05:32:56;96116.47;;;-0.25
79756;BMP280;69239;50.678;12.280;2024-02-26T05:35:21;96115.69;;;-0.26
79756;BMP280;69239;50.678;12.280;2024-02-26T05:37:46;96104.59;;;-0.26
79756;BMP280;69239;50.678;12.280;2024-02-26T05:40:12;96112.34;;;-0.32
79756;BMP280;69239;50.678;12.280;2024-02-26T05:42:38;96113.38;;;-0.28
79756;BMP280;69239;50.678;12.280;2024-02-26T05:45:04;96109.22;;;-0.29
79756;BMP280;69239;50.678;12.280;2024-02-26T05:47:32;96101.47;;;-0.29
79756;BMP280;69239;50.678;12.280;2024-02-26T05:49:58;96111.78;;;-0.18
79756;BMP280;69239;50.678;12.280;2024-02-26T05:52:24;96116.41;;;-0.15
79756;BMP280;69239;50.678;12.280;2024-02-26T05:54:49;96112.00;;;-0.15
79756;BMP280;69239;50.678;12.280;2024-02-26T05:57:15;96121.00;;;-0.07
79756;BMP280;69239;50.678;12.280;2024-02-26T05:59:40;96127.19;;;-0.03
79756;BMP280;69239;50.678;12.280;2024-02-26T06:02:06;96127.66;;;0.04
79756;BMP280;69239;50.678;12.280;2024-02-26T06:04:31;96137.50;;;0.02
79756;BMP280;69239;50.678;12.280;2024-02-26T06:06:56;96141.06;;;0.11
79756;BMP280;69239;50.678;12.280;2024-02-26T06:09:22;96142.28;;;0.24
79756;BMP280;69239;50.678;12.280;2024-02-26T06:11:47;96148.38;;;0.33
79756;BMP280;69239;50.678;12.280;2024-02-26T06:14:18;96138.28;;;0.37
79756;BMP280;69239;50.678;12.280;2024-02-26T06:16:46;96153.13;;;0.55
79756;BMP280;69239;50.678;12.280;2024-02-26T06:19:11;96153.00;;;0.70
79756;BMP280;69239;50.678;12.280;2024-02-26T06:21:37;96157.78;;;0.87
79756;BMP280;69239;50.678;12.280;2024-02-26T06:24:02;96151.72;;;0.97
79756;BMP280;69239;50.678;12.280;2024-02-26T06:26:28;96162.47;;;1.14
79756;BMP280;69239;50.678;12.280;2024-02-26T06:28:54;96166.19;;;1.27
79756;BMP280;69239;50.678;12.280;2024-02-26T06:31:21;96168.19;;;1.35
79756;BMP280;69239;50.678;12.280;2024-02-26T06:33:48;96163.34;;;1.28
79756;BMP280;69239;50.678;12.280;2024-02-26T06:36:13;96163.28;;;1.33
79756;BMP280;69239;50.678;12.280;2024-02-26T06:38:38;96159.56;;;1.39
79756;BMP280;69239;50.678;12.280;2024-02-26T06:41:04;96163.28;;;1.76
79756;BMP280;69239;50.678;12.280;2024-02-26T06:43:29;96151.03;;;2.33
79756;BMP280;69239;50.678;12.280;2024-02-26T06:45:54;96177.47;;;2.68
79756;BMP280;69239;50.678;12.280;2024-02-26T06:48:19;96166.44;;;2.76
79756;BMP280;69239;50.678;12.280;2024-02-26T06:50:45;96172.91;;;3.33
79756;BMP280;69239;50.678;12.280;2024-02-26T06:53:10;96168.06;;;4.58
79756;BMP280;69239;50.678;12.280;2024-02-26T06:55:35;96172.69;;;6.09
79756;BMP280;69239;50.678;12.280;2024-02-26T06:58:02;96167.53;;;7.23
79756;BMP280;69239;50.678;12.280;2024-02-26T07:00:27;96166.25;;;7.92
79756;BMP280;69239;50.678;12.280;2024-02-26T07:02:52;96157.25;;;8.59
79756;BMP280;69239;50.678;12.280;2024-02-26T07:05:19;96164.97;;;9.41
79756;BMP280;69239;50.678;12.280;2024-02-26T07:07:44;96160.44;;;10.25
79756;BMP280;69239;50.678;12.280;2024-02-26T07:10:11;96167.59;;;11.07
79756;BMP280;69239;50.678;12.280;2024-02-26T07:12:37;96163.66;;;11.75
79756;BMP280;69239;50.678;12.280;2024-02-26T07:15:03;96158.91;;;12.49
79756;BMP280;69239;50.678;12.280;2024-02-26T07:17:36;96150.44;;;13.52
79756;BMP280;69239;50.678;12.280;2024-02-26T07:20:02;96153.66;;;14.68
79756;BMP280;69239;50.678;12.280;2024-02-26T07:22:30;96146.78;;;15.29
79756;BMP280;69239;50.678;12.280;2024-02-26T07:24:56;96166.22;;;15.72
79756;BMP280;69239;50.678;12.280;2024-02-26T07:27:23;96160.94;;;16.00
79756;BMP280;69239;50.678;12.280;2024-02-26T07:29:48;96156.38;;;16.22
79756;BMP280;69239;50.678;12.280;2024-02-26T07:32:14;96162.44;;;16.44
79756;BMP280;69239;50.678;12.280;2024-02-26T07:34:39;96165.81;;;16.51
79756;BMP280;69239;50.678;12.280;2024-02-26T07:37:07;96171.50;;;16.64
79756;BMP280;69239;50.678;12.280;2024-02-26T07:39:33;96163.69;;;17.23
79756;BMP280;69239;50.678;12.280;2024-02-26T07:41:59;96168.81;;;17.66
79756;BMP280;69239;50.678;12.280;2024-02-26T07:44:25;96178.63;;;17.79
79756;BMP280;69239;50.678;12.280;2024-02-26T07:46:50;96170.19;;;17.84
79756;BMP280;69239;50.678;12.280;2024-02-26T07:49:16;96169.63;;;18.52
79756;BMP280;69239;50.678;12.280;2024-02-26T07:51:42;96172.03;;;19.37
79756;BMP280;69239;50.678;12.280;2024-02-26T07:54:07;96169.25;;;19.95
79756;BMP280;69239;50.678;12.280;2024-02-26T07:56:33;96177.03;;;20.32
79756;BMP280;69239;50.678;12.280;2024-02-26T07:59:02;96176.03;;;20.46
79756;BMP280;69239;50.678;12.280;2024-02-26T08:01:28;96175.81;;;20.57
79756;BMP280;69239;50.678;12.280;2024-02-26T08:03:55;96185.16;;;20.88
79756;BMP280;69239;50.678;12.280;2024-02-26T08:06:21;96181.06;;;21.00
79756;BMP280;69239;50.678;12.280;2024-02-26T08:08:50;96190.56;;;20.84
79756;BMP280;69239;50.678;12.280;2024-02-26T08:11:15;96184.47;;;19.98
79756;BMP280;69239;50.678;12.280;2024-02-26T08:13:41;96189.75;;;19.51
79756;BMP280;69239;50.678;12.280;2024-02-26T08:16:06;96189.53;;;19.69
79756;BMP280;69239;50.678;12.280;2024-02-26T08:18:32;96199.38;;;19.72
79756;BMP280;69239;50.678;12.280;2024-02-26T08:20:57;96203.78;;;19.28
79756;BMP280;69239;50.678;12.280;2024-02-26T08:23:22;96211.22;;;18.76
79756;BMP280;69239;50.678;12.280;2024-02-26T08:25:49;96211.03;;;18.15
79756;BMP280;69239;50.678;12.280;2024-02-26T08:28:17;96220.59;;;17.43
79756;BMP280;69239;50.678;12.280;2024-02-26T08:30:44;96219.34;;;16.64
79756;BMP280;69239;50.678;12.280;2024-02-26T08:33:09;96224.25;;;15.98
79756;BMP280;69239;50.678;12.280;2024-02-26T08:35:35;96219.94;;;15.54
79756;BMP280;69239;50.678;12.280;2024-02-26T08:38:00;96216.81;;;15.24
79756;BMP280;69239;50.678;12.280;2024-02-26T08:40:26;96225.78;;;15.02
79756;BMP280;69239;50.678;12.280;2024-02-26T08:42:51;96215.06;;;14.80
79756;BMP280;69239;50.678;12.280;2024-02-26T08:45:16;96223.44;;;14.90
79756;BMP280;69239;50.678;12.280;2024-02-26T08:47:41;96228.91;;;15.25
79756;BMP280;69239;50.678;12.280;2024-02-26T08:50:09;96226.09;;;15.73
79756;BMP280;69239;50.678;12.280;2024-02-26T08:52:35;96216.63;;;15.86
79756;BMP280;69239;50.678;12.280;2024-02-26T08:55:00;96212.81;;;15.73
79756;BMP280;69239;50.678;12.280;2024-02-26T08:57:25;96228.31;;;15.60
79756;BMP280;69239;50.678;12.280;2024-02-26T08:59:52;96212.34;;;15.35
79756;BMP280;69239;50.678;12.280;2024-02-26T09:02:17;96213.41;;;15.20
79756;BMP280;69239;50.678;12.280;2024-02-26T09:04:44;96224.69;;;15.10
79756;BMP280;69239;50.678;12.280;2024-02-26T09:07:10;96224.09;;;14.76
79756;BMP280;69239;50.678;12.280;2024-02-26T09:09:35;96228.44;;;14.47
79756;BMP280;69239;50.678;12.280;2024-02-26T09:12:01;96225.28;;;14.31
79756;BMP280;69239;50.678;12.280;2024-02-26T09:14:27;96233.94;;;14.24
79756;BMP280;69239;50.678;12.280;2024-02-26T09:16:52;96231.97;;;14.17
79756;BMP280;69239;50.678;12.280;2024-02-26T09:19:17;96234.63;;;14.21
79756;BMP280;69239;50.678;12.280;2024-02-26T09:21:46;96232.34;;;14.16
79756;BMP280;69239;50.678;12.280;2024-02-26T09:24:17;96236.34;;;14.03
79756;BMP280;69239;50.678;12.280;2024-02-26T09:26:42;96234.72;;;13.88
79756;BMP280;69239;50.678;12.280;2024-02-26T09:29:08;96233.78;;;13.73
79756;BMP280;69239;50.678;12.280;2024-02-26T09:31:33;96217.56;;;13.44
79756;BMP280;69239;50.678;12.280;2024-02-26T09:34:00;96223.38;;;13.27
79756;BMP280;69239;50.678;12.280;2024-02-26T09:36:25;96227.22;;;13.03
79756;BMP280;69239;50.678;12.280;2024-02-26T09:38:51;96223.63;;;12.88
79756;BMP280;69239;50.678;12.280;2024-02-26T09:41:16;96222.69;;;12.77
79756;BMP280;69239;50.678;12.280;2024-02-26T09:43:44;96243.59;;;12.63
79756;BMP280;69239;50.678;12.280;2024-02-26T09:46:11;96240.72;;;12.49
79756;BMP280;69239;50.678;12.280;2024-02-26T09:48:37;96241.75;;;12.44
79756;BMP280;69239;50.678;12.280;2024-02-26T09:51:04;96244.34;;;12.41
79756;BMP280;69239;50.678;12.280;2024-02-26T09:53:30;96237.84;;;12.35
79756;BMP280;69239;50.678;12.280;2024-02-26T09:55:58;96241.47;;;12.27
79756;BMP280;69239;50.678;12.280;2024-02-26T09:58:25;96239.00;;;12.37
79756;BMP280;69239;50.678;12.280;2024-02-26T10:00:55;96234.28;;;12.46
79756;BMP280;69239;50.678;12.280;2024-02-26T10:03:22;96252.44;;;12.74
79756;BMP280;69239;50.678;12.280;2024-02-26T10:05:50;96238.06;;;12.98
79756;BMP280;69239;50.678;12.280;2024-02-26T10:08:20;96236.28;;;13.32
79756;BMP280;69239;50.678;12.280;2024-02-26T10:10:47;96243.25;;;13.74
79756;BMP280;69239;50.678;12.280;2024-02-26T10:13:13;96244.91;;;13.89
79756;BMP280;69239;50.678;12.280;2024-02-26T10:15:38;96239.94;;;13.84
79756;BMP280;69239;50.678;12.280;2024-02-26T10:18:05;96249.47;;;13.92
79756;BMP280;69239;50.678;12.280;2024-02-26T10:20:30;96239.31;;;13.98
79756;BMP280;69239;50.678;12.280;2024-02-26T10:22:57;96249.25;;;14.08
79756;BMP280;69239;50.678;12.280;2024-02-26T10:25:23;96244.00;;;14.11
79756;BMP280;69239;50.678;12.280;2024-02-26T10:27:54;96247.09;;;14.20
79756;BMP280;69239;50.678;12.280;2024-02-26T10:30:20;96249.88;;;14.35
79756;BMP280;69239;50.678;12.280;2024-02-26T10:32:49;96245.19;;;14.58
79756;BMP280;69239;50.678;12.280;2024-02-26T10:35:16;96246.84;;;14.80
79756;BMP280;69239;50.678;12.280;2024-02-26T10:37:42;96238.59;;;14.89
79756;BMP280;69239;50.678;12.280;2024-02-26T10:40:11;96246.19;;;14.98
79756;BMP280;69239;50.678;12.280;2024-02-26T10:42:39;96241.25;;;14.96
79756;BMP280;69239;50.678;12.280;2024-02-26T10:45:06;96238.56;;;14.85
79756;BMP280;69239;50.678;12.280;2024-02-26T10:47:32;96230.16;;;14.73
79756;BMP280;69239;50.678;12.280;2024-02-26T10:49:58;96225.84;;;14.54
79756;BMP280;69239;50.678;12.280;2024-02-26T10:52:25;96236.72;;;14.42
79756;BMP280;69239;50.678;12.280;2024-02-26T10:54:53;96234.63;;;14.21
79756;BMP280;69239;50.678;12.280;2024-02-26T10:57:21;96229.47;;;13.95
79756;BMP280;69239;50.678;12.280;2024-02-26T10:59:48;96233.78;;;13.73
79756;BMP280;69239;50.678;12.280;2024-02-26T11:02:14;96234.28;;;13.52
79756;BMP280;69239;50.678;12.280;2024-02-26T11:04:39;96225.72;;;13.32
79756;BMP280;69239;50.678;12.280;2024-02-26T11:07:05;96221.66;;;13.12
79756;BMP280;69239;50.678;12.280;2024-02-26T11:09:32;96231.28;;;12.97
79756;BMP280;69239;50.678;12.280;2024-02-26T11:11:58;96240.16;;;12.85
79756;BMP280;69239;50.678;12.280;2024-02-26T11:14:24;96245.63;;;12.73
79756;BMP280;69239;50.678;12.280;2024-02-26T11:16:51;96242.75;;;12.59
79756;BMP280;69239;50.678;12.280;2024-02-26T11:19:16;96245.50;;;12.43
79756;BMP280;69239;50.678;12.280;2024-02-26T11:21:43;96248.97;;;12.25
79756;BMP280;69239;50.678;12.280;2024-02-26T11:24:14;96244.97;;;12.11
79756;BMP280;69239;50.678;12.280;2024-02-26T11:26:50;96247.13;;;12.06
79756;BMP280;69239;50.678;12.280;2024-02-26T11:29:24;96251.50;;;11.98
79756;BMP280;69239;50.678;12.280;2024-02-26T11:31:50;96247.88;;;11.87
79756;BMP280;69239;50.678;12.280;2024-02-26T11:34:16;96248.16;;;11.82
79756;BMP280;69239;50.678;12.280;2024-02-26T11:36:42;96253.00;;;11.80
79756;BMP280;69239;50.678;12.280;2024-02-26T11:39:13;96250.75;;;11.78
79756;BMP280;69239;50.678;12.280;2024-02-26T11:41:43;96245.72;;;11.73
79756;BMP280;69239;50.678;12.280;2024-02-26T11:44:08;96254.41;;;11.74
79756;BMP280;69239;50.678;12.280;2024-02-26T11:46:41;96258.56;;;11.75
79756;BMP280;69239;50.678;12.280;2024-02-26T11:49:31;96255.59;;;11.76
79756;BMP280;69239;50.678;12.280;2024-02-26T11:51:58;96254.13;;;11.79
79756;BMP280;69239;50.678;12.280;2024-02-26T11:54:48;96258.16;;;11.92
79756;BMP280;69239;50.678;12.280;2024-02-26T12:00:13;96257.47;;;12.37
79756;BMP280;69239;50.678;12.280;2024-02-26T12:02:46;96256.00;;;12.85
79756;BMP280;69239;50.678;12.280;2024-02-26T12:05:17;96257.31;;;13.51
79756;BMP280;69239;50.678;12.280;2024-02-26T12:07:48;96259.72;;;13.97
79756;BMP280;69239;50.678;12.280;2024-02-26T12:10:27;96260.25;;;14.50
79756;BMP280;69239;50.678;12.280;2024-02-26T12:13:02;96253.09;;;15.09
79756;BMP280;69239;50.678;12.280;2024-02-26T12:15:33;96252.25;;;15.71
79756;BMP280;69239;50.678;12.280;2024-02-26T12:18:03;96255.75;;;16.24
79756;BMP280;69239;50.678;12.280;2024-02-26T12:20:30;96242.88;;;16.12
79756;BMP280;69239;50.678;12.280;2024-02-26T12:22:56;96258.03;;;16.12
79756;BMP280;69239;50.678;12.280;2024-02-26T12:25:27;96254.25;;;16.13
79756;BMP280;69239;50.678;12.280;2024-02-26T12:27:56;96253.50;;;16.12
79756;BMP280;69239;50.678;12.280;2024-02-26T12:30:22;96255.38;;;16.15
79756;BMP280;69239;50.678;12.280;2024-02-26T12:32:48;96260.28;;;16.13
79756;BMP280;69239;50.678;12.280;2024-02-26T12:35:15;96254.63;;;16.11
79756;BMP280;69239;50.678;12.280;2024-02-26T12:37:41;96245.88;;;15.97
79756;BMP280;69239;50.678;12.280;2024-02-26T12:40:09;96257.25;;;15.90
79756;BMP280;69239;50.678;12.280;2024-02-26T12:42:35;96262.53;;;15.83
79756;BMP280;69239;50.678;12.280;2024-02-26T12:45:08;96268.91;;;15.75
79756;BMP280;69239;50.678;12.280;2024-02-26T12:47:45;96265.84;;;15.66
79756;BMP280;69239;50.678;12.280;2024-02-26T12:50:16;96280.25;;;15.65
79756;BMP280;69239;50.678;12.280;2024-02-26T12:52:46;96292.78;;;15.68
79756;BMP280;69239;50.678;12.280;2024-02-26T12:55:17;96286.72;;;15.71
79756;BMP280;69239;50.678;12.280;2024-02-26T12:57:44;96270.41;;;15.65
79756;BMP280;69239;50.678;12.280;2024-02-26T13:00:16;96276.13;;;15.71
79756;BMP280;69239;50.678;12.280;2024-02-26T13:02:43;96283.72;;;15.69
79756;BMP280;69239;50.678;12.280;2024-02-26T13:05:12;96273.78;;;15.59
79756;BMP280;69239;50.678;12.280;2024-02-26T13:07:42;96268.03;;;15.42
79756;BMP280;69239;50.678;12.280;2024-02-26T13:10:08;96288.22;;;15.58
79756;BMP280;69239;50.678;12.280;2024-02-26T13:12:34;96284.47;;;15.73
79756;BMP280;69239;50.678;12.280;2024-02-26T13:15:03;96287.56;;;15.96
79756;BMP280;69239;50.678;12.280;2024-02-26T13:17:31;96292.16;;;16.17
79756;BMP280;69239;50.678;12.280;2024-02-26T13:19:56;96304.38;;;16.61
79756;BMP280;69239;50.678;12.280;2024-02-26T13:22:22;96305.84;;;17.01
79756;BMP280;69239;50.678;12.280;2024-02-26T13:24:55;96308.09;;;17.13
79756;BMP280;69239;50.678;12.280;2024-02-26T13:27:22;96315.72;;;17.11
79756;BMP280;69239;50.678;12.280;2024-02-26T13:29:48;96331.69;;;17.04
79756;BMP280;69239;50.678;12.280;2024-02-26T13:32:13;96330.16;;;17.06
79756;BMP280;69239;50.678;12.280;2024-02-26T13:34:38;96329.75;;;17.25
79756;BMP280;69239;50.678;12.280;2024-02-26T13:37:03;96333.13;;;17.37
79756;BMP280;69239;50.678;12.280;2024-02-26T13:39:30;96334.66;;;17.41
79756;BMP280;69239;50.678;12.280;2024-02-26T13:41:55;96333.88;;;17.51
79756;BMP280;69239;50.678;12.280;2024-02-26T13:44:23;96342.22;;;17.53
79756;BMP280;69239;50.678;12.280;2024-02-26T13:46:49;96333.09;;;17.54
79756;BMP280;69239;50.678;12.280;2024-02-26T13:49:15;96329.28;;;17.55
79756;BMP280;69239;50.678;12.280;2024-02-26T13:51:40;96330.44;;;17.54
79756;BMP280;69239;50.678;12.280;2024-02-26T13:54:06;96334.56;;;17.62
79756;BMP280;69239;50.678;12.280;2024-02-26T13:56:32;96340.31;;;17.50
79756;BMP280;69239;50.678;12.280;2024-02-26T13:58:57;96342.25;;;17.39